Terminal Aerodrome Forecast
Issued by NWS

Home | Current Version | Previous Version | Text Only | Print | Product List | Glossary On
Versions: 1 2 3 4 5 6 7 8 9 10 11 12 13
892
FTUS45 KTFX 301720
TAFGTF
TAF
KGTF 301720Z 3018/0118 22016KT P6SM OVC100
     FM302000 26020G28KT P6SM VCSH SCT060 BKN100
     FM010100 26016KT P6SM SCT100 SCT150
     FM011000 30009KT P6SM VCSH BKN050
      TEMPO 0110/0114 4SM -SHRA OVC025=

USA.gov is the U.S. government's official web portal to all federal, state and local government web resources and services.